Time;durP1;ratioP1;P1;durP2;ratioP2;P2;SDS_P1;SDS_P2;PMS_P1;PMS_P2;Temp;Humidity;BMP_temperature;BMP_pressure;BME280_temperature;BME280_humidity;BME280_pressure;Samples;Min_cycle;Max_cycle;Signal;HPM_P1;HPM_P2
2021/12/08 00:01:09;;;;;;;6.88;3.63;;;-0.10;64.60;;;;;;5033040;28;20022;-24
2021/12/08 00:03:35;;;;;;;7.45;3.60;;;-0.10;64.10;;;;;;5033306;28;20054;-24
2021/12/08 00:06:02;;;;;;;5.97;3.50;;;-0.10;64.10;;;;;;5032926;28;20481;-24
2021/12/08 00:08:30;;;;;;;7.10;3.75;;;-0.20;64.00;;;;;;5032799;28;20032;-23
2021/12/08 00:13:34;;;;;;;14.02;8.02;;;-0.20;64.30;;;;;;5032946;28;20084;-23
2021/12/08 00:16:04;;;;;;;17.58;9.07;;;-0.20;64.50;;;;;;5032836;28;20033;-24
2021/12/08 00:18:33;;;;;;;14.18;6.15;;;-0.20;64.60;;;;;;5032740;28;20076;-24
2021/12/08 00:21:02;;;;;;;8.82;4.40;;;-0.30;64.90;;;;;;5032789;28;20030;-23
2021/12/08 00:23:29;;;;;;;14.68;7.43;;;-0.30;65.30;;;;;;5032808;28;20032;-24
2021/12/08 00:25:56;;;;;;;14.98;8.98;;;-0.30;65.20;;;;;;5032715;28;20033;-23
2021/12/08 00:28:23;;;;;;;13.30;7.35;;;-0.30;65.40;;;;;;5032671;28;20397;-24
2021/12/08 00:30:52;;;;;;;5.93;3.40;;;-0.40;65.70;;;;;;5033169;28;20022;-24
2021/12/08 00:33:20;;;;;;;24.08;12.40;;;-0.40;65.20;;;;;;5032717;28;20037;-24
2021/12/08 00:35:48;;;;;;;21.70;10.57;;;-0.40;65.20;;;;;;5032927;28;20030;-24
2021/12/08 00:38:17;;;;;;;14.07;6.28;;;-0.50;65.90;;;;;;5032656;28;20029;-24
2021/12/08 00:40:45;;;;;;;10.00;5.47;;;-0.50;65.60;;;;;;5032565;28;20036;-24
2021/12/08 00:43:11;;;;;;;9.35;5.68;;;-0.50;65.40;;;;;;5032515;28;20025;-24
2021/12/08 00:45:37;;;;;;;14.30;7.68;;;-0.50;65.30;;;;;;5032587;28;20116;-24
2021/12/08 00:48:04;;;;;;;9.65;4.78;;;-0.50;66.20;;;;;;5033934;28;20033;-24
2021/12/08 00:50:34;;;;;;;8.13;4.38;;;-0.40;65.40;;;;;;5035995;28;20037;-24
2021/12/08 00:53:01;;;;;;;9.85;5.88;;;-0.40;64.90;;;;;;5036235;28;20075;-24
2021/12/08 00:55:28;;;;;;;16.65;8.48;;;-0.30;65.10;;;;;;5036383;28;20025;-24
2021/12/08 00:57:55;;;;;;;9.20;5.03;;;-0.30;64.80;;;;;;5036333;28;20087;-24
2021/12/08 01:00:27;;;;;;;10.45;5.18;;;-0.20;64.70;;;;;;5035853;28;20108;-24
2021/12/08 01:02:54;;;;;;;15.05;7.60;;;-0.20;64.60;;;;;;5036045;28;20507;-25
2021/12/08 01:05:23;;;;;;;7.80;4.25;;;-0.10;64.60;;;;;;5036539;28;20064;-24
2021/12/08 01:07:50;;;;;;;8.75;4.50;;;-0.10;64.40;;;;;;5036481;28;20027;-24
2021/12/08 01:10:20;;;;;;;7.95;4.47;;;-0.10;64.30;;;;;;5035839;28;20035;-25
2021/12/08 01:12:47;;;;;;;6.88;3.83;;;-0.10;64.10;;;;;;5035816;28;20080;-24
2021/12/08 01:15:15;;;;;;;14.82;8.50;;;-0.10;64.00;;;;;;5035958;28;20492;-24
2021/12/08 01:17:41;;;;;;;15.27;8.13;;;-0.10;64.00;;;;;;5035724;28;20091;-24
2021/12/08 01:20:10;;;;;;;9.07;5.13;;;-0.10;63.90;;;;;;5035960;28;20025;-24
2021/12/08 01:22:37;;;;;;;12.88;6.15;;;-0.10;63.70;;;;;;5035766;28;20033;-24
2021/12/08 01:25:05;;;;;;;14.43;8.00;;;-0.10;63.90;;;;;;5035597;28;20152;-24
2021/12/08 01:27:33;;;;;;;13.85;6.63;;;-0.10;63.80;;;;;;5035717;28;20037;-24
2021/12/08 01:30:00;;;;;;;11.60;6.53;;;-0.10;63.80;;;;;;5035779;28;20065;-24
2021/12/08 01:32:26;;;;;;;18.17;9.27;;;-0.10;63.80;;;;;;5035345;28;20029;-24
2021/12/08 01:34:53;;;;;;;17.23;9.52;;;-0.10;64.00;;;;;;5035236;28;20050;-24
2021/12/08 01:37:21;;;;;;;12.57;6.57;;;-0.10;64.30;;;;;;5035615;28;20035;-24
2021/12/08 01:39:48;;;;;;;11.80;5.88;;;-0.10;64.10;;;;;;5035928;28;20022;-23
2021/12/08 01:42:26;;;;;;;17.15;8.10;;;-0.10;64.20;;;;;;5035087;28;20485;-24
2021/12/08 01:47:36;;;;;;;;;;;-0.20;64.50;;;;;;5036077;28;20048;-24
2021/12/08 01:50:05;;;;;;;12.65;6.88;;;-0.30;65.00;;;;;;5035138;28;20268;-24
2021/12/08 01:52:32;;;;;;;13.75;7.13;;;-0.30;65.00;;;;;;5034937;28;20028;-24
2021/12/08 01:54:58;;;;;;;7.38;4.32;;;-0.30;65.10;;;;;;5034963;28;20040;-24
2021/12/08 01:57:25;;;;;;;8.93;4.82;;;-0.30;65.10;;;;;;5035261;28;20105;-24
2021/12/08 01:59:51;;;;;;;17.73;9.50;;;-0.40;65.20;;;;;;5035145;28;20033;-24
2021/12/08 02:02:17;;;;;;;10.27;5.53;;;-0.40;65.10;;;;;;5034695;28;20504;-25
2021/12/08 02:04:43;;;;;;;12.52;6.95;;;-0.40;65.70;;;;;;5034845;28;20022;-24
2021/12/08 02:07:10;;;;;;;12.55;6.32;;;-0.40;65.50;;;;;;5034886;28;20436;-24
2021/12/08 02:09:36;;;;;;;6.55;4.03;;;-0.40;65.70;;;;;;5034720;28;20084;-24
2021/12/08 02:12:02;;;;;;;9.38;5.38;;;-0.40;66.10;;;;;;5034607;28;20473;-24
2021/12/08 02:14:32;;;;;;;10.63;4.82;;;-0.40;65.90;;;;;;5033100;28;20442;-28
2021/12/08 02:16:58;;;;;;;8.35;4.32;;;-0.40;65.90;;;;;;5035205;28;20091;-23
2021/12/08 02:19:25;;;;;;;12.43;6.35;;;-0.40;66.00;;;;;;5034886;28;20033;-23
2021/12/08 02:21:52;;;;;;;6.00;3.42;;;-0.40;66.30;;;;;;5034505;28;20033;-25
2021/12/08 02:24:21;;;;;;;7.57;3.65;;;-0.30;66.00;;;;;;5034296;28;20112;-23
2021/12/08 02:26:50;;;;;;;6.80;3.42;;;-0.20;65.30;;;;;;5034704;28;20052;-25
2021/12/08 02:29:33;;;;;;;7.07;3.55;;;-0.20;65.10;;;;;;5034307;28;20021;-24
2021/12/08 02:32:23;;;;;;;11.97;6.97;;;0.00;65.00;;;;;;5034363;28;20031;-25
2021/12/08 02:48:31;;;;;;;13.57;7.30;;;0.10;69.30;;;;;;5034124;28;20044;-26
2021/12/08 02:50:57;;;;;;;12.20;6.13;;;0.10;68.40;;;;;;5033137;28;20017;-24
2021/12/08 02:53:24;;;;;;;19.10;11.20;;;0.10;67.40;;;;;;5034699;28;20037;-24
2021/12/08 02:55:51;;;;;;;17.30;9.88;;;0.10;68.60;;;;;;5034172;28;20124;-24
2021/12/08 02:58:18;;;;;;;10.80;6.07;;;0.10;70.20;;;;;;5033539;28;20022;-26
2021/12/08 03:01:12;;;;;;;10.82;5.70;;;0.10;69.50;;;;;;5033740;28;20053;-25
2021/12/08 03:03:39;;;;;;;10.77;5.50;;;0.20;67.60;;;;;;5032713;28;20033;-24
2021/12/08 03:06:06;;;;;;;10.15;5.82;;;0.20;67.60;;;;;;5033976;28;20026;-24
2021/12/08 03:08:33;;;;;;;10.32;5.45;;;0.30;67.10;;;;;;5033498;28;20022;-24
2021/12/08 03:11:00;;;;;;;6.18;3.72;;;0.30;66.70;;;;;;5033396;28;20037;-24
2021/12/08 03:13:31;;;;;;;5.85;3.08;;;0.40;66.30;;;;;;5033524;28;20029;-24
2021/12/08 03:15:58;;;;;;;14.80;8.55;;;0.40;66.30;;;;;;5033471;28;20503;-23
2021/12/08 03:18:33;;;;;;;8.90;4.72;;;0.50;66.60;;;;;;5033417;28;20029;-23
2021/12/08 03:21:02;;;;;;;6.47;3.42;;;0.60;67.20;;;;;;5033505;28;20060;-26
2021/12/08 03:23:51;;;;;;;13.43;8.55;;;0.60;66.60;;;;;;5033764;28;20056;-24
2021/12/08 03:26:24;;;;;;;11.15;6.97;;;0.60;66.30;;;;;;5033148;28;20040;-25
2021/12/08 03:28:59;;;;;;;8.45;4.75;;;0.70;67.30;;;;;;5033416;28;20026;-25
2021/12/08 03:31:31;;;;;;;12.18;6.93;;;0.80;66.60;;;;;;5033683;28;20025;-23
2021/12/08 03:33:58;;;;;;;8.90;4.15;;;0.90;66.30;;;;;;5033231;28;20046;-23
2021/12/08 03:36:24;;;;;;;15.00;8.02;;;1.00;66.20;;;;;;5032960;28;20512;-23
2021/12/08 03:38:50;;;;;;;9.15;5.25;;;1.10;65.90;;;;;;5033280;28;20113;-23
2021/12/08 03:41:16;;;;;;;8.90;5.85;;;1.20;66.50;;;;;;5033082;28;20121;-26
2021/12/08 03:43:42;;;;;;;7.05;3.63;;;1.20;66.40;;;;;;5033788;28;20108;-23
2021/12/08 03:46:12;;;;;;;9.90;5.45;;;1.30;65.50;;;;;;5033205;28;20118;-23
2021/12/08 03:48:50;;;;;;;4.80;3.00;;;1.40;65.40;;;;;;5032939;28;20022;-23
2021/12/08 03:51:17;;;;;;;7.93;4.45;;;1.50;65.10;;;;;;5033130;28;20025;-21
2021/12/08 03:53:44;;;;;;;6.15;3.92;;;1.50;65.10;;;;;;5033322;28;20021;-24
2021/12/08 03:56:10;;;;;;;4.05;2.75;;;1.60;65.10;;;;;;5031709;28;20029;-24
2021/12/08 03:58:37;;;;;;;7.82;4.28;;;1.60;64.80;;;;;;5032732;28;20033;-24
2021/12/08 04:01:05;;;;;;;4.30;2.83;;;1.70;64.50;;;;;;5033274;28;20032;-23
2021/12/08 04:03:33;;;;;;;6.22;3.15;;;1.70;64.50;;;;;;5033236;28;20408;-23
2021/12/08 04:06:06;;;;;;;6.00;3.67;;;1.80;64.30;;;;;;5033231;28;20052;-24
2021/12/08 04:08:44;;;;;;;8.90;4.90;;;1.70;64.40;;;;;;5032743;28;20021;-25
2021/12/08 04:11:13;;;;;;;13.18;6.38;;;1.80;64.50;;;;;;5033290;28;20057;-24
2021/12/08 04:13:55;;;;;;;6.47;4.03;;;1.80;64.80;;;;;;5031608;28;20116;-25
2021/12/08 04:16:28;;;;;;;6.07;3.30;;;1.90;64.60;;;;;;5032677;28;20029;-24
2021/12/08 04:18:57;;;;;;;6.65;3.10;;;1.80;64.10;;;;;;5033203;28;20025;-23
2021/12/08 04:21:26;;;;;;;6.88;3.55;;;1.90;63.80;;;;;;5032817;28;20029;-23
2021/12/08 04:23:52;;;;;;;6.35;3.42;;;1.90;63.80;;;;;;5033782;28;20588;-24
2021/12/08 04:26:43;;;;;;;6.32;3.42;;;1.90;63.60;;;;;;5036814;28;20477;-24
2021/12/08 04:29:11;;;;;;;6.47;3.30;;;1.90;63.80;;;;;;5036782;28;20112;-23
2021/12/08 04:31:40;;;;;;;5.20;3.20;;;1.90;64.00;;;;;;5036923;28;20113;-24
2021/12/08 04:34:15;;;;;;;4.50;3.00;;;1.90;64.00;;;;;;5036298;28;20144;-24
2021/12/08 04:36:45;;;;;;;6.78;3.78;;;1.90;63.90;;;;;;5036487;28;20026;-24
2021/12/08 04:39:19;;;;;;;8.02;4.63;;;1.90;63.80;;;;;;5036523;28;20108;-24
2021/12/08 04:41:51;;;;;;;7.85;3.78;;;1.90;63.70;;;;;;5036689;28;20477;-26
2021/12/08 04:45:20;;;;;;;5.88;3.35;;;1.90;63.80;;;;;;5036190;28;20079;-25
2021/12/08 05:03:52;;;;;;;9.88;4.68;;;2.00;66.90;;;;;;5036124;28;20029;-24
2021/12/08 05:06:44;;;;;;;7.63;4.05;;;2.10;65.80;;;;;;5035857;28;20046;-24
2021/12/08 05:09:14;;;;;;;11.25;6.43;;;2.10;65.40;;;;;;5036771;28;20032;-24
2021/12/08 05:11:46;;;;;;;9.32;4.63;;;2.20;66.30;;;;;;5036117;28;20025;-24
2021/12/08 05:14:24;;;;;;;11.57;6.63;;;2.30;65.30;;;;;;5035828;28;20028;-24
2021/12/08 05:16:55;;;;;;;15.13;9.35;;;2.40;65.00;;;;;;5035827;28;20033;-24
2021/12/08 05:19:26;;;;;;;10.15;4.82;;;2.40;66.00;;;;;;5036103;28;20021;-24
2021/12/08 05:22:07;;;;;;;10.85;6.68;;;2.40;65.90;;;;;;5035968;28;20041;-24
2021/12/08 05:24:36;;;;;;;11.77;7.15;;;2.40;65.30;;;;;;5035576;28;20083;-24
2021/12/08 05:27:11;;;;;;;7.97;4.63;;;2.50;66.10;;;;;;5035481;28;20367;-24
2021/12/08 05:29:42;;;;;;;14.70;7.70;;;2.40;65.70;;;;;;5035963;28;20033;-24
2021/12/08 05:32:09;;;;;;;6.82;4.10;;;2.50;64.70;;;;;;5035840;28;20026;-24
2021/12/08 05:34:37;;;;;;;6.78;3.72;;;2.50;65.00;;;;;;5034538;28;20452;-24
2021/12/08 05:37:09;;;;;;;10.93;5.80;;;2.50;64.30;;;;;;5035767;28;20041;-24
2021/12/08 05:39:36;;;;;;;14.48;8.38;;;2.50;64.60;;;;;;5035724;28;20026;-24
2021/12/08 05:42:13;;;;;;;9.20;5.10;;;2.50;65.40;;;;;;5035651;28;20030;-25
2021/12/08 05:44:40;;;;;;;12.88;8.02;;;2.60;64.80;;;;;;5035310;28;20044;-24
2021/12/08 05:47:12;;;;;;;16.17;9.07;;;2.50;65.80;;;;;;5035551;28;20022;-24
2021/12/08 05:49:39;;;;;;;13.88;8.23;;;2.60;66.40;;;;;;5035531;28;20022;-24
2021/12/08 05:52:08;;;;;;;15.73;7.70;;;2.50;66.10;;;;;;5033887;28;20401;-24
2021/12/08 05:54:38;;;;;;;13.55;7.30;;;2.50;66.20;;;;;;5034861;28;20033;-25
2021/12/08 05:57:22;;;;;;;14.10;8.32;;;2.50;66.20;;;;;;5035016;28;20090;-25
2021/12/08 05:59:51;;;;;;;14.15;6.43;;;2.60;66.20;;;;;;5034997;28;20608;-26
2021/12/08 06:02:32;;;;;;;14.55;6.95;;;2.60;65.70;;;;;;5034713;28;20367;-24
2021/12/08 06:05:00;;;;;;;15.43;9.50;;;2.50;66.00;;;;;;5035241;28;20030;-25
2021/12/08 06:07:28;;;;;;;11.30;6.72;;;2.50;66.00;;;;;;5034842;28;20036;-25
2021/12/08 06:09:58;;;;;;;14.57;8.40;;;2.60;66.30;;;;;;5035383;28;20117;-25
2021/12/08 06:12:25;;;;;;;13.73;7.28;;;2.60;66.10;;;;;;5034904;28;20032;-24
2021/12/08 06:14:55;;;;;;;14.27;8.05;;;2.60;65.90;;;;;;5034916;28;20026;-25
2021/12/08 06:17:25;;;;;;;11.90;7.03;;;2.60;65.80;;;;;;5034999;28;20030;-24
2021/12/08 06:19:51;;;;;;;10.15;5.70;;;2.60;65.90;;;;;;5034930;28;20033;-25
2021/12/08 06:22:19;;;;;;;11.13;5.38;;;2.60;66.10;;;;;;5034313;28;20046;-24
2021/12/08 06:24:46;;;;;;;8.65;5.13;;;2.60;66.00;;;;;;5034465;28;20037;-24
2021/12/08 06:27:12;;;;;;;10.80;6.20;;;2.70;66.10;;;;;;5034445;28;20072;-25
2021/12/08 06:29:39;;;;;;;9.45;5.63;;;2.70;66.30;;;;;;5034541;28;20389;-25
2021/12/08 06:32:10;;;;;;;11.38;6.22;;;2.70;66.00;;;;;;5034635;28;20025;-25
2021/12/08 06:34:39;;;;;;;14.40;6.80;;;2.70;66.00;;;;;;5033815;28;20133;-25
2021/12/08 06:37:14;;;;;;;10.23;6.07;;;2.80;66.30;;;;;;5034573;28;20044;-25
2021/12/08 06:39:45;;;;;;;9.48;5.32;;;2.80;65.80;;;;;;5034290;28;20028;-24
2021/12/08 06:42:16;;;;;;;12.43;7.30;;;2.80;65.70;;;;;;5034091;28;20032;-25
2021/12/08 06:44:47;;;;;;;10.55;6.07;;;2.80;66.00;;;;;;5034470;28;20040;-24
2021/12/08 06:47:17;;;;;;;9.10;5.25;;;2.90;66.10;;;;;;5033371;28;20033;-25
2021/12/08 06:49:46;;;;;;;8.48;5.55;;;2.90;66.00;;;;;;5033979;28;20026;-26
2021/12/08 06:52:29;;;;;;;8.00;5.07;;;2.90;65.90;;;;;;5034081;28;20033;-27
2021/12/08 06:55:05;;;;;;;9.57;5.97;;;2.90;65.80;;;;;;5034282;28;20498;-26
2021/12/08 06:57:36;;;;;;;8.25;4.82;;;3.00;65.70;;;;;;5034106;28;20036;-25
2021/12/08 07:00:20;;;;;;;7.97;4.30;;;3.00;65.60;;;;;;5034238;28;20021;-25
2021/12/08 07:02:59;;;;;;;7.07;4.40;;;3.10;65.20;;;;;;5033754;28;20029;-25
2021/12/08 07:05:32;;;;;;;8.18;4.57;;;3.20;65.40;;;;;;5033805;28;20090;-25
2021/12/08 07:08:06;;;;;;;9.40;5.82;;;3.30;65.40;;;;;;5034616;28;20119;-25
2021/12/08 07:10:38;;;;;;;8.68;4.82;;;3.40;65.00;;;;;;5033868;28;20013;-25
2021/12/08 07:13:09;;;;;;;10.43;5.10;;;3.40;65.00;;;;;;5033725;28;20174;-25
2021/12/08 07:15:39;;;;;;;10.50;6.30;;;3.50;64.80;;;;;;5033886;28;20052;-25
2021/12/08 07:18:11;;;;;;;9.63;5.35;;;3.60;64.80;;;;;;5033537;28;20103;-25
2021/12/08 07:20:45;;;;;;;11.15;6.57;;;3.60;64.60;;;;;;5033896;28;20025;-25
2021/12/08 07:23:23;;;;;;;9.13;5.72;;;3.60;65.10;;;;;;5033782;28;20103;-25
2021/12/08 07:25:55;;;;;;;6.40;4.05;;;3.70;64.60;;;;;;5033764;28;20037;-24
2021/12/08 07:28:25;;;;;;;14.27;7.20;;;3.70;64.40;;;;;;5033073;28;20025;-25
2021/12/08 07:31:00;;;;;;;15.80;6.85;;;3.70;64.50;;;;;;5033310;28;20036;-24
2021/12/08 07:33:27;;;;;;;31.45;11.55;;;3.70;64.20;;;;;;5033256;28;20496;-24
2021/12/08 07:35:57;;;;;;;11.57;5.30;;;3.80;64.10;;;;;;5033261;28;20033;-25
2021/12/08 07:38:26;;;;;;;9.65;5.00;;;3.80;63.40;;;;;;5033351;28;20033;-24
2021/12/08 07:41:08;;;;;;;8.43;4.57;;;3.70;63.70;;;;;;5033212;28;20024;-25
2021/12/08 07:43:39;;;;;;;11.73;5.10;;;3.80;61.60;;;;;;5033143;28;20486;-24
2021/12/08 07:46:14;;;;;;;10.43;5.35;;;3.80;62.40;;;;;;5033506;28;20025;-24
2021/12/08 07:48:57;;;;;;;6.15;3.90;;;3.80;61.90;;;;;;5033689;28;20025;-25
2021/12/08 07:51:33;;;;;;;6.30;3.88;;;3.90;61.90;;;;;;5033416;28;20103;-25
2021/12/08 07:54:00;;;;;;;7.35;4.00;;;3.90;61.60;;;;;;5033420;28;20049;-24
2021/12/08 07:56:28;;;;;;;8.35;3.70;;;3.90;61.00;;;;;;5032972;28;20026;-23
2021/12/08 07:58:58;;;;;;;6.97;4.03;;;3.90;60.00;;;;;;5039867;28;20396;-24
2021/12/08 08:01:30;;;;;;;7.18;3.58;;;3.90;59.50;;;;;;5039996;28;20029;-23
2021/12/08 08:03:57;;;;;;;5.60;3.40;;;3.90;59.10;;;;;;5039996;28;20040;-24
2021/12/08 08:06:29;;;;;;;8.07;4.03;;;4.00;60.00;;;;;;5039436;28;20018;-24
2021/12/08 08:08:55;;;;;;;6.43;3.90;;;4.00;59.40;;;;;;5039995;28;20036;-24
2021/12/08 08:11:34;;;;;;;7.90;4.20;;;4.00;59.50;;;;;;5039842;28;20036;-24
2021/12/08 08:14:01;;;;;;;6.97;4.10;;;4.00;60.40;;;;;;5039784;28;20022;-24
2021/12/08 08:16:33;;;;;;;8.43;4.35;;;4.10;59.60;;;;;;5038029;28;20025;-24
2021/12/08 08:19:06;;;;;;;8.43;4.40;;;4.10;59.40;;;;;;5039511;28;20030;-24
2021/12/08 08:21:36;;;;;;;9.52;4.53;;;4.10;59.70;;;;;;5039483;28;20026;-25
2021/12/08 08:24:04;;;;;;;10.10;4.90;;;4.20;58.30;;;;;;5039433;28;20044;-24
2021/12/08 08:26:32;;;;;;;8.30;4.35;;;4.20;59.40;;;;;;5039541;28;20026;-24
2021/12/08 08:28:59;;;;;;;8.43;4.35;;;4.20;59.50;;;;;;5039292;28;20037;-25
2021/12/08 08:31:41;;;;;;;9.70;4.75;;;4.30;59.20;;;;;;5039394;28;20029;-24
2021/12/08 08:34:10;;;;;;;8.55;4.60;;;4.30;59.00;;;;;;5039341;28;20123;-24
2021/12/08 08:36:42;;;;;;;8.75;5.20;;;4.40;59.00;;;;;;5039102;28;20022;-23
2021/12/08 08:39:16;;;;;;;8.10;4.28;;;4.40;58.80;;;;;;5039681;28;20030;-25
2021/12/08 08:41:47;;;;;;;5.80;3.40;;;4.50;58.80;;;;;;5039832;28;20021;-25
2021/12/08 08:44:33;;;;;;;7.57;3.95;;;4.50;59.30;;;;;;5039076;28;20022;-25
2021/12/08 08:47:05;;;;;;;6.18;4.00;;;4.60;58.80;;;;;;5039588;28;20033;-24
2021/12/08 08:49:35;;;;;;;8.18;4.32;;;4.60;59.10;;;;;;5039259;28;20484;-26
2021/12/08 08:52:25;;;;;;;8.57;4.43;;;4.60;59.00;;;;;;5039205;28;20024;-26
2021/12/08 08:54:54;;;;;;;6.80;4.00;;;4.70;58.80;;;;;;5039443;28;20072;-26
2021/12/08 08:57:26;;;;;;;6.05;3.88;;;4.70;58.40;;;;;;5039093;28;20104;-26
2021/12/08 08:59:59;;;;;;;7.22;4.03;;;4.80;58.50;;;;;;5039407;28;20033;-26
2021/12/08 09:02:38;;;;;;;8.13;4.28;;;4.80;58.40;;;;;;5039069;28;20026;-26
2021/12/08 09:05:30;;;;;;;8.18;4.68;;;4.80;59.70;;;;;;5039524;28;20044;-26
2021/12/08 09:07:59;;;;;;;8.25;4.28;;;4.80;60.30;;;;;;5039359;28;20026;-25
2021/12/08 09:10:52;;;;;;;7.78;4.30;;;4.80;60.40;;;;;;5035261;28;20099;-25
2021/12/08 09:13:23;;;;;;;7.70;4.00;;;4.80;61.40;;;;;;5035845;28;20025;-26
2021/12/08 09:15:53;;;;;;;9.00;4.32;;;4.80;61.70;;;;;;5035998;28;20037;-25
2021/12/08 09:18:37;;;;;;;9.07;4.20;;;4.80;62.40;;;;;;5035597;28;20080;-26
2021/12/08 09:21:16;;;;;;;8.73;4.38;;;4.80;63.00;;;;;;5035742;28;20037;-26
2021/12/08 09:23:56;;;;;;;9.30;5.05;;;4.80;63.10;;;;;;5035740;28;20022;-25
2021/12/08 09:26:25;;;;;;;7.05;4.53;;;4.80;63.10;;;;;;5035555;28;20041;-26
2021/12/08 09:29:11;;;;;;;6.05;3.90;;;4.80;63.10;;;;;;5035458;28;20449;-25
2021/12/08 09:31:41;;;;;;;7.82;4.40;;;4.80;62.20;;;;;;5034423;28;20033;-25
2021/12/08 09:34:23;;;;;;;8.68;4.88;;;4.70;63.00;;;;;;5035426;28;20049;-25
2021/12/08 09:36:59;;;;;;;9.63;5.30;;;4.70;62.50;;;;;;5035435;28;20436;-25
2021/12/08 09:39:37;;;;;;;9.52;5.13;;;4.70;62.70;;;;;;5035752;28;20033;-25
2021/12/08 09:42:15;;;;;;;7.35;4.70;;;4.70;62.40;;;;;;5034134;28;20385;-24
2021/12/08 09:44:51;;;;;;;7.90;4.60;;;4.70;62.30;;;;;;5035659;28;20025;-25
2021/12/08 09:47:18;;;;;;;6.68;4.28;;;4.70;62.10;;;;;;5035586;28;20048;-25
2021/12/08 09:49:47;;;;;;;9.65;5.18;;;4.70;62.60;;;;;;5035513;28;20076;-24
2021/12/08 09:52:17;;;;;;;9.77;5.22;;;4.70;63.60;;;;;;5035256;28;20030;-28
2021/12/08 09:54:44;;;;;;;9.00;5.05;;;4.60;64.20;;;;;;5035034;28;20076;-24
2021/12/08 09:57:13;;;;;;;7.78;4.85;;;4.60;64.70;;;;;;5034985;28;20485;-24
2021/12/08 09:59:46;;;;;;;7.38;4.63;;;4.70;65.20;;;;;;5035708;28;20052;-24
2021/12/08 10:02:24;;;;;;;6.93;4.10;;;4.60;65.60;;;;;;5035003;28;20056;-25
2021/12/08 10:04:50;;;;;;;7.32;4.32;;;4.60;65.50;;;;;;5035628;28;20075;-25
2021/12/08 10:07:19;;;;;;;7.85;4.60;;;4.60;66.10;;;;;;5034849;28;20405;-24
2021/12/08 10:09:47;;;;;;;7.55;4.78;;;4.60;66.20;;;;;;5035137;28;20101;-24
2021/12/08 10:12:13;;;;;;;8.50;4.47;;;4.60;66.50;;;;;;5034893;28;20029;-24
2021/12/08 10:14:39;;;;;;;8.10;4.75;;;4.50;65.90;;;;;;5034503;28;20398;-24
2021/12/08 10:17:06;;;;;;;9.35;5.05;;;4.50;66.40;;;;;;5034718;28;20029;-24
2021/12/08 10:19:32;;;;;;;8.57;5.05;;;4.50;67.00;;;;;;5034626;28;20021;-25
2021/12/08 10:21:58;;;;;;;9.90;5.10;;;4.50;67.30;;;;;;5033790;28;20028;-25
2021/12/08 10:24:27;;;;;;;10.13;5.93;;;4.50;67.40;;;;;;5034350;28;20030;-25
2021/12/08 10:27:02;;;;;;;12.93;6.57;;;4.50;67.40;;;;;;5034362;28;20021;-25
2021/12/08 10:29:30;;;;;;;11.20;5.85;;;4.50;67.90;;;;;;5035014;28;20021;-25
2021/12/08 10:31:57;;;;;;;9.27;5.38;;;4.50;67.80;;;;;;5034708;28;20031;-24
2021/12/08 10:34:30;;;;;;;11.00;4.80;;;4.50;67.80;;;;;;5033899;28;20115;-24
2021/12/08 10:36:56;;;;;;;11.82;5.80;;;4.60;67.60;;;;;;5034295;28;20025;-24
2021/12/08 10:39:48;;;;;;;9.45;5.88;;;4.60;68.20;;;;;;5034292;28;20029;-25
2021/12/08 10:42:18;;;;;;;9.00;4.90;;;4.60;68.50;;;;;;5034240;28;20032;-25
2021/12/08 10:47:36;;;;;;;15.18;7.22;;;4.70;69.10;;;;;;5034177;28;20022;-25
2021/12/08 10:56:08;;;;;;;12.00;6.88;;;4.60;69.30;;;;;;5034086;28;20040;-24
2021/12/08 10:58:36;;;;;;;9.40;5.50;;;4.60;70.00;;;;;;5033601;28;20036;-25
2021/12/08 11:01:13;;;;;;;11.30;6.88;;;4.60;69.50;;;;;;5034393;28;20064;-25
2021/12/08 11:03:40;;;;;;;11.15;6.10;;;4.60;71.10;;;;;;5033826;28;20065;-23
2021/12/08 11:06:09;;;;;;;10.25;5.97;;;4.60;71.40;;;;;;5034055;28;20025;-24
2021/12/08 11:08:41;;;;;;;10.52;6.63;;;4.50;71.70;;;;;;5033873;28;20091;-24
2021/12/08 11:11:20;;;;;;;10.70;6.97;;;4.40;72.50;;;;;;5033740;28;20057;-24
2021/12/08 11:13:50;;;;;;;11.00;6.80;;;4.40;72.90;;;;;;5033585;28;20022;-24
2021/12/08 11:16:26;;;;;;;12.07;7.55;;;4.40;73.80;;;;;;5033355;28;20033;-24
2021/12/08 11:19:13;;;;;;;11.20;7.00;;;4.40;73.50;;;;;;5033588;28;20367;-23
2021/12/08 11:21:49;;;;;;;11.05;7.30;;;4.40;74.40;;;;;;5033848;28;20029;-23
2021/12/08 11:24:33;;;;;;;10.18;6.47;;;4.40;75.20;;;;;;5033326;28;20026;-23
2021/12/08 11:27:01;;;;;;;12.88;8.07;;;4.40;74.90;;;;;;5033650;28;20117;-22
2021/12/08 11:29:31;;;;;;;10.25;6.47;;;4.40;74.20;;;;;;5033415;28;20105;-22
2021/12/08 11:32:03;;;;;;;9.48;5.97;;;4.30;75.00;;;;;;5033001;28;20439;-22
2021/12/08 11:34:36;;;;;;;8.32;5.35;;;4.40;75.50;;;;;;5032930;28;20549;-22
2021/12/08 11:37:32;;;;;;;10.35;6.15;;;4.40;74.10;;;;;;5033593;28;20045;-23
2021/12/08 11:40:02;;;;;;;9.65;5.88;;;4.30;76.80;;;;;;5033327;28;20022;-23
2021/12/08 11:42:35;;;;;;;8.63;5.68;;;4.20;77.10;;;;;;5032963;28;20076;-22
2021/12/08 11:45:12;;;;;;;10.50;6.50;;;4.20;76.70;;;;;;5033859;28;20017;-22
2021/12/08 11:47:38;;;;;;;12.45;6.00;;;4.20;76.10;;;;;;5033958;28;20044;-22
2021/12/08 11:50:22;;;;;;;8.43;5.43;;;4.20;76.30;;;;;;5033425;28;20030;-22
2021/12/08 11:52:53;;;;;;;10.88;6.63;;;4.20;76.20;;;;;;5033155;28;20026;-21
2021/12/08 11:55:22;;;;;;;10.38;6.28;;;4.20;77.40;;;;;;5032999;28;20017;-22
2021/12/08 11:57:53;;;;;;;10.40;6.57;;;4.10;78.00;;;;;;5032970;28;20041;-21
2021/12/08 12:00:37;;;;;;;10.65;6.63;;;4.10;78.40;;;;;;5032875;28;20103;-21
2021/12/08 12:03:05;;;;;;;;;;;4.10;78.00;;;;;;5033732;28;20056;-21
2021/12/08 12:05:46;;;;;;;11.18;6.68;;;4.00;78.90;;;;;;5032940;28;19905;-20
2021/12/08 12:08:18;;;;;;;10.38;6.20;;;4.00;78.70;;;;;;5033039;28;20499;-20
2021/12/08 12:10:51;;;;;;;13.23;6.03;;;4.00;78.40;;;;;;5032994;28;20021;-21
2021/12/08 12:13:18;;;;;;;12.32;7.50;;;4.00;78.20;;;;;;5032860;28;20053;-20
2021/12/08 12:15:47;;;;;;;15.30;7.60;;;4.00;79.50;;;;;;5033152;28;20108;-20
2021/12/08 12:18:19;;;;;;;11.63;6.15;;;4.10;78.40;;;;;;5032905;28;20030;-19
2021/12/08 12:20:58;;;;;;;10.23;6.15;;;4.10;78.00;;;;;;5033162;28;20030;-20
2021/12/08 12:23:58;;;;;;;9.65;6.20;;;4.10;78.50;;;;;;5032815;28;20033;-20
2021/12/08 12:26:53;;;;;;;10.07;5.93;;;4.10;78.20;;;;;;5032759;28;20033;-20
2021/12/08 12:29:35;;;;;;;10.52;6.15;;;4.10;77.50;;;;;;5032766;28;20075;-21
2021/12/08 12:32:10;;;;;;;11.77;7.32;;;4.20;78.20;;;;;;5033075;28;20017;-21
2021/12/08 12:34:39;;;;;;;11.80;6.90;;;4.10;79.90;;;;;;5032424;28;20084;-20
2021/12/08 12:37:25;;;;;;;10.27;6.80;;;4.10;79.50;;;;;;5032714;28;20512;-21
2021/12/08 12:39:54;;;;;;;11.82;7.22;;;4.20;79.20;;;;;;5033147;28;20159;-20
2021/12/08 12:42:21;;;;;;;11.65;7.38;;;4.20;80.50;;;;;;5032726;28;20037;-20
2021/12/08 12:45:01;;;;;;;11.02;6.95;;;4.20;80.10;;;;;;5034950;28;20033;-20
2021/12/08 12:47:30;;;;;;;11.75;6.82;;;4.10;80.00;;;;;;5036401;28;20044;-20
2021/12/08 12:50:07;;;;;;;9.57;6.05;;;4.20;80.60;;;;;;5036330;28;20029;-20
2021/12/08 12:52:35;;;;;;;11.13;6.03;;;4.10;79.90;;;;;;5036095;28;20057;-21
2021/12/08 12:55:24;;;;;;;10.32;5.95;;;4.10;80.40;;;;;;5036160;28;20025;-21
2021/12/08 12:58:03;;;;;;;13.00;7.32;;;4.20;79.80;;;;;;5036594;28;20477;-21
2021/12/08 13:00:41;;;;;;;13.05;7.07;;;4.20;80.90;;;;;;5035933;28;20432;-20
2021/12/08 13:03:28;;;;;;;11.98;7.53;;;4.10;80.60;;;;;;5036157;28;20064;-21
2021/12/08 13:05:54;;;;;;;14.55;8.07;;;4.20;80.60;;;;;;5035999;28;20060;-21
2021/12/08 13:08:32;;;;;;;13.88;7.85;;;4.20;81.80;;;;;;5035780;28;20061;-20
2021/12/08 13:11:28;;;;;;;13.75;8.02;;;4.10;81.60;;;;;;5035957;28;20407;-21
2021/12/08 13:13:56;;;;;;;13.00;8.05;;;4.20;80.80;;;;;;5035773;28;20061;-23
2021/12/08 13:17:06;;;;;;;11.77;6.88;;;4.20;81.30;;;;;;5035864;28;20083;-22
2021/12/08 13:19:46;;;;;;;14.15;8.05;;;4.20;80.90;;;;;;5035377;28;20088;-22
2021/12/08 13:22:40;;;;;;;14.52;8.35;;;4.20;81.00;;;;;;5035739;28;20025;-21
2021/12/08 13:25:22;;;;;;;13.95;9.05;;;4.30;81.00;;;;;;5028482;28;20068;-22
2021/12/08 13:27:52;;;;;;;14.93;9.10;;;4.30;80.80;;;;;;5035760;28;20037;-22
2021/12/08 13:30:19;;;;;;;14.25;8.23;;;4.30;80.80;;;;;;5035848;28;20029;-20
2021/12/08 13:32:46;;;;;;;12.13;7.38;;;4.30;80.60;;;;;;5034176;28;20025;-20
2021/12/08 13:35:32;;;;;;;12.13;8.30;;;4.30;80.30;;;;;;5035452;28;20509;-20
2021/12/08 13:37:59;;;;;;;10.50;6.63;;;4.30;80.80;;;;;;5035508;28;20390;-22
2021/12/08 13:40:49;;;;;;;10.27;6.72;;;4.30;80.10;;;;;;5035195;28;20040;-22
2021/12/08 13:43:34;;;;;;;9.68;5.18;;;4.30;81.00;;;;;;5035361;28;20028;-20
2021/12/08 13:46:01;;;;;;;9.27;5.97;;;4.30;80.70;;;;;;5035625;28;20021;-21
2021/12/08 13:48:27;;;;;;;9.80;5.47;;;4.30;81.80;;;;;;5035050;28;20496;-21
2021/12/08 13:51:12;;;;;;;7.80;4.75;;;4.30;81.90;;;;;;5035953;28;20040;-20
2021/12/08 13:53:38;;;;;;;8.63;4.93;;;4.30;81.60;;;;;;5035489;28;20025;-21
2021/12/08 13:56:05;;;;;;;8.77;4.40;;;4.30;81.80;;;;;;5034813;28;20034;-21
2021/12/08 13:58:38;;;;;;;8.57;4.90;;;4.30;82.30;;;;;;5035079;28;20026;-21
2021/12/08 14:01:06;;;;;;;8.15;5.05;;;4.30;82.10;;;;;;5035431;28;20033;-18